Time;durP1;ratioP1;P1;durP2;ratioP2;P2;SDS_P1;SDS_P2;PMS_P1;PMS_P2;Temp;Humidity;BMP_temperature;BMP_pressure;BME280_temperature;BME280_humidity;BME280_pressure;Samples;Min_cycle;Max_cycle;Signal;HPM_P1;HPM_P2
2024/02/14 00:00:44;;;;;;;15.43;10.68;;;8.70;99.90;;;;;;20533700;28;20129;-40
2024/02/14 00:10:45;;;;;;;15.85;12.48;;;8.80;99.90;;;;;;20520558;28;20050;-41
2024/02/14 00:20:45;;;;;;;18.75;12.38;;;8.80;99.90;;;;;;20544449;28;20399;-41
2024/02/14 00:30:46;;;;;;;16.48;13.65;;;8.90;99.90;;;;;;20532183;28;20185;-41
2024/02/14 00:40:48;;;;;;;16.88;12.57;;;8.90;99.90;;;;;;20529954;28;20854;-41
2024/02/14 00:50:49;;;;;;;17.15;13.95;;;9.10;99.90;;;;;;20536824;28;20042;-40
2024/02/14 01:00:49;;;;;;;22.35;15.07;;;9.30;99.90;;;;;;20535922;28;20047;-41
2024/02/14 01:10:51;;;;;;;18.75;14.73;;;9.30;99.90;;;;;;20536398;28;20038;-41
2024/02/14 01:20:53;;;;;;;19.15;13.63;;;9.40;99.90;;;;;;20558068;28;20047;-42
2024/02/14 01:30:54;;;;;;;16.92;13.77;;;9.50;99.90;;;;;;20553004;28;20081;-42
2024/02/14 01:40:54;;;;;;;18.25;13.52;;;9.60;99.90;;;;;;20558378;28;21807;-41
2024/02/14 01:50:55;;;;;;;19.77;14.93;;;9.60;99.90;;;;;;20553268;28;20039;-42
2024/02/14 02:00:58;;;;;;;23.10;15.20;;;9.60;99.90;;;;;;20544026;28;20073;-41
2024/02/14 02:10:59;;;;;;;22.25;15.35;;;9.70;99.90;;;;;;20555879;28;20031;-41
2024/02/14 02:20:59;;;;;;;19.63;14.20;;;9.80;99.90;;;;;;20553450;28;20521;-41
2024/02/14 02:31:00;;;;;;;19.42;14.15;;;9.70;99.90;;;;;;20560718;28;20447;-40
2024/02/14 02:41:00;;;;;;;18.70;14.15;;;9.80;99.90;;;;;;20550143;28;20051;-41
2024/02/14 02:51:01;;;;;;;16.98;13.05;;;9.70;99.90;;;;;;20545000;28;20190;-41
2024/02/14 03:01:03;;;;;;;14.70;11.85;;;9.80;99.90;;;;;;20545775;28;20478;-41
2024/02/14 03:11:08;;;;;;;19.13;13.32;;;9.80;99.90;;;;;;20540062;28;20046;-41
2024/02/14 03:21:09;;;;;;;17.35;13.05;;;9.80;99.90;;;;;;20554196;28;20121;-41
2024/02/14 03:31:11;;;;;;;23.75;13.73;;;10.00;99.90;;;;;;20551812;28;20043;-41
2024/02/14 03:41:13;;;;;;;28.08;15.40;;;9.90;99.90;;;;;;20548182;28;20495;-41
2024/02/14 03:51:13;;;;;;;25.13;14.65;;;10.00;99.90;;;;;;20544783;28;20054;-41
2024/02/14 04:01:15;;;;;;;24.48;15.98;;;10.10;99.90;;;;;;20540595;28;20047;-42
2024/02/14 04:11:16;;;;;;;24.55;15.88;;;10.10;99.90;;;;;;20536637;28;20614;-42
2024/02/14 04:21:16;;;;;;;25.67;16.60;;;10.20;99.90;;;;;;20532802;28;20050;-41
2024/02/14 04:31:17;;;;;;;26.60;15.38;;;10.30;99.90;;;;;;20531481;28;20046;-41
2024/02/14 04:41:17;;;;;;;30.75;16.35;;;10.30;99.90;;;;;;20529766;28;20038;-41
2024/02/14 04:51:18;;;;;;;28.05;16.25;;;10.30;99.90;;;;;;20520415;28;20049;-41
2024/02/14 05:01:19;;;;;;;31.00;17.10;;;10.40;99.90;;;;;;20524329;28;20053;-41
2024/02/14 05:11:20;;;;;;;30.13;18.38;;;10.40;99.90;;;;;;20520966;28;20516;-41
2024/02/14 05:21:21;;;;;;;31.70;16.98;;;10.40;99.90;;;;;;20527257;28;20042;-41
2024/02/14 05:31:22;;;;;;;30.33;15.70;;;10.50;99.90;;;;;;20531884;28;20055;-41
2024/02/14 05:41:24;;;;;;;28.00;15.20;;;10.50;99.90;;;;;;20533473;28;20146;-41
2024/02/14 05:51:24;;;;;;;23.25;15.27;;;10.50;99.90;;;;;;20538277;28;20030;-42
2024/02/14 06:01:25;;;;;;;31.23;17.95;;;10.50;99.90;;;;;;20546033;28;20286;-42
2024/02/14 06:11:26;;;;;;;25.63;17.08;;;10.50;99.90;;;;;;20546883;28;20030;-41
2024/02/14 06:21:27;;;;;;;22.33;15.20;;;10.40;99.90;;;;;;20548951;28;20057;-41
2024/02/14 06:31:27;;;;;;;24.02;15.32;;;10.60;99.90;;;;;;20555928;28;20051;-41
2024/02/14 06:41:29;;;;;;;28.88;16.02;;;10.60;99.90;;;;;;20562625;28;20053;-41
2024/02/14 06:51:30;;;;;;;30.30;19.40;;;10.60;99.90;;;;;;20547161;28;20034;-41
2024/02/14 07:01:31;;;;;;;38.38;22.17;;;10.60;99.90;;;;;;20562261;28;20121;-41
2024/02/14 07:11:31;;;;;;;32.40;20.35;;;10.70;99.90;;;;;;20567018;28;20475;-41
2024/02/14 07:21:33;;;;;;;36.50;20.02;;;10.60;99.90;;;;;;20558388;28;20043;-41
2024/02/14 07:31:34;;;;;;;38.08;20.33;;;10.70;99.90;;;;;;20544084;28;20039;-41
2024/02/14 07:41:34;;;;;;;29.80;19.50;;;10.80;99.90;;;;;;20558804;28;20039;-41
2024/02/14 07:51:37;;;;;;;26.48;16.88;;;10.70;99.90;;;;;;20550449;28;20455;-41
2024/02/14 08:01:38;;;;;;;22.33;14.95;;;10.80;99.90;;;;;;20553656;28;20046;-41
2024/02/14 08:11:38;;;;;;;24.95;14.75;;;10.80;99.90;;;;;;20551132;28;20041;-41
2024/02/14 08:21:39;;;;;;;19.48;14.70;;;10.80;99.90;;;;;;20547100;28;21925;-41
2024/02/14 08:31:40;;;;;;;17.75;12.70;;;10.80;99.90;;;;;;20546169;28;20333;-41
2024/02/14 08:41:44;;;;;;;18.38;11.95;;;11.00;99.90;;;;;;20529965;28;20414;-41
2024/02/14 08:51:46;;;;;;;16.80;12.38;;;11.00;99.90;;;;;;20535288;28;20050;-41
2024/02/14 09:01:46;;;;;;;17.17;11.23;;;11.00;99.90;;;;;;20553908;28;20194;-41
2024/02/14 09:11:47;;;;;;;14.30;10.37;;;11.00;99.90;;;;;;20544617;28;20042;-41
2024/02/14 09:21:47;;;;;;;14.27;9.50;;;11.00;99.90;;;;;;20544345;28;20071;-41
2024/02/14 09:31:53;;;;;;;15.30;10.30;;;11.10;99.90;;;;;;20531929;28;21009;-41
2024/02/14 09:42:02;;;;;;;17.05;10.50;;;11.10;99.90;;;;;;20552792;28;20311;-41
2024/02/14 09:52:03;;;;;;;19.27;11.50;;;11.10;99.90;;;;;;20546624;28;21643;-41
2024/02/14 10:02:03;;;;;;;17.98;11.10;;;11.20;99.90;;;;;;20574970;28;20042;-41
2024/02/14 10:12:04;;;;;;;16.95;10.07;;;11.30;99.90;;;;;;20573794;28;20046;-41
2024/02/14 10:22:05;;;;;;;12.88;9.25;;;11.30;99.90;;;;;;20565847;28;20045;-41
2024/02/14 10:32:06;;;;;;;14.43;9.88;;;11.40;99.90;;;;;;20539234;28;20900;-41
2024/02/14 10:42:07;;;;;;;16.35;11.10;;;11.50;99.90;;;;;;20542803;28;20622;-41
2024/02/14 10:52:08;;;;;;;14.15;10.13;;;11.60;99.90;;;;;;20539855;28;20034;-41
2024/02/14 11:02:10;;;;;;;13.50;9.85;;;11.70;99.90;;;;;;20550497;28;20039;-41
2024/02/14 11:12:11;;;;;;;13.90;9.88;;;11.70;99.90;;;;;;20567033;28;20046;-41
2024/02/14 11:22:17;;;;;;;11.90;9.77;;;11.80;99.90;;;;;;20564493;28;20298;-41
2024/02/14 11:32:18;;;;;;;12.70;10.00;;;11.70;99.90;;;;;;20546378;28;20722;-41
2024/02/14 11:42:21;;;;;;;16.30;11.07;;;11.80;99.90;;;;;;20537790;28;20093;-41
2024/02/14 11:52:22;;;;;;;13.18;10.85;;;11.80;99.90;;;;;;20548314;28;20027;-41
2024/02/14 12:02:23;;;;;;;17.70;12.20;;;11.90;99.90;;;;;;20558016;28;20050;-41
2024/02/14 12:12:24;;;;;;;16.70;12.30;;;12.00;99.90;;;;;;20548143;28;20062;-41
2024/02/14 12:22:25;;;;;;;14.50;11.00;;;12.10;99.90;;;;;;20552124;28;20038;-41
2024/02/14 12:32:25;;;;;;;11.75;9.45;;;12.00;99.90;;;;;;20553608;28;20414;-42
2024/02/14 12:42:27;;;;;;;13.57;10.73;;;12.10;99.90;;;;;;20557263;28;20139;-41
2024/02/14 12:52:28;;;;;;;11.27;8.90;;;12.00;99.90;;;;;;20550791;28;20027;-41
2024/02/14 13:02:28;;;;;;;14.43;9.80;;;12.00;99.90;;;;;;20554349;28;20569;-41
2024/02/14 13:12:29;;;;;;;12.48;9.85;;;12.00;99.90;;;;;;20559686;28;20085;-41
2024/02/14 13:22:29;;;;;;;9.68;7.82;;;12.00;99.90;;;;;;20583587;28;21538;-42
2024/02/14 13:32:30;;;;;;;8.75;7.18;;;12.20;99.90;;;;;;20582644;28;20039;-42
2024/02/14 13:42:31;;;;;;;9.65;7.88;;;12.20;99.90;;;;;;20555008;28;20046;-41
2024/02/14 13:52:32;;;;;;;8.98;7.47;;;12.20;99.90;;;;;;20556175;28;20150;-42
2024/02/14 14:02:33;;;;;;;7.80;6.65;;;12.30;99.90;;;;;;20559224;28;20038;-42
2024/02/14 14:12:34;;;;;;;8.75;6.35;;;12.40;99.90;;;;;;20559104;28;20034;-42
2024/02/14 14:22:34;;;;;;;8.43;5.93;;;12.30;99.90;;;;;;20567762;28;20225;-42
2024/02/14 14:32:35;;;;;;;10.30;6.57;;;12.30;99.90;;;;;;20569754;28;20049;-41
2024/02/14 14:42:36;;;;;;;7.10;4.97;;;12.50;99.90;;;;;;20568869;28;20442;-42
2024/02/14 14:52:37;;;;;;;7.60;6.00;;;12.50;99.90;;;;;;20561257;28;20514;-41
2024/02/14 15:02:42;;;;;;;8.30;5.18;;;12.50;99.90;;;;;;20565416;28;20042;-41
2024/02/14 15:12:42;;;;;;;7.38;4.90;;;12.50;99.90;;;;;;20562782;28;20101;-42
2024/02/14 15:22:43;;;;;;;7.65;5.20;;;12.60;99.90;;;;;;20560600;28;20054;-42
2024/02/14 15:43:03;;;;;;;8.35;5.20;;;12.50;99.90;;;;;;20545372;28;21706;-42
2024/02/14 15:53:05;;;;;;;7.47;5.03;;;12.60;99.90;;;;;;20557697;28;20035;-42
2024/02/14 16:03:06;;;;;;;7.95;4.90;;;12.50;99.90;;;;;;20580718;28;20399;-41
2024/02/14 16:13:06;;;;;;;5.07;2.40;;;12.60;99.90;;;;;;20568279;28;20507;-41
2024/02/14 16:23:08;;;;;;;7.47;2.80;;;12.60;99.90;;;;;;20554130;28;20055;-41
2024/02/14 16:33:09;;;;;;;8.10;4.28;;;12.50;99.90;;;;;;20557380;28;20049;-41
2024/02/14 16:43:10;;;;;;;10.02;6.38;;;12.50;99.90;;;;;;20572289;28;20093;-41
2024/02/14 16:53:10;;;;;;;13.40;7.00;;;12.50;99.90;;;;;;20564209;28;20038;-41
2024/02/14 17:03:12;;;;;;;15.18;7.82;;;12.60;99.90;;;;;;20565605;28;20066;-41
2024/02/14 17:13:14;;;;;;;11.57;6.78;;;12.60;99.90;;;;;;20563614;28;20402;-42
2024/02/14 17:23:15;;;;;;;13.55;5.80;;;12.60;99.90;;;;;;20565996;28;20039;-41
2024/02/14 17:33:16;;;;;;;11.40;5.90;;;12.60;99.90;;;;;;20565865;28;20486;-41
2024/02/14 17:43:17;;;;;;;13.85;6.18;;;12.70;99.90;;;;;;20546428;28;20533;-41
2024/02/14 17:53:17;;;;;;;16.55;6.68;;;12.60;99.90;;;;;;20538774;28;20050;-41
2024/02/14 18:03:18;;;;;;;19.53;6.90;;;12.70;99.90;;;;;;20550619;28;20039;-41
2024/02/14 18:13:19;;;;;;;13.07;6.38;;;12.70;99.90;;;;;;20548827;28;20462;-41
2024/02/14 18:23:19;;;;;;;13.88;6.53;;;12.70;99.90;;;;;;20535038;28;20058;-42
2024/02/14 18:33:20;;;;;;;9.20;6.88;;;12.70;99.90;;;;;;20563506;28;20039;-42
2024/02/14 18:43:21;;;;;;;8.82;5.18;;;12.70;99.90;;;;;;20560083;28;20043;-41
2024/02/14 18:53:21;;;;;;;10.63;7.25;;;12.70;99.90;;;;;;20554976;28;20845;-41
2024/02/14 19:03:22;;;;;;;12.13;5.60;;;12.70;99.90;;;;;;20545563;28;20098;-41
2024/02/14 19:13:23;;;;;;;8.07;5.10;;;12.80;99.90;;;;;;20555093;28;20119;-41
2024/02/14 19:23:23;;;;;;;12.98;7.47;;;12.60;99.90;;;;;;20556994;28;21057;-41
2024/02/14 19:33:25;;;;;;;12.90;7.03;;;12.70;99.90;;;;;;20562042;28;20097;-41
2024/02/14 19:43:26;;;;;;;11.40;6.95;;;12.80;99.90;;;;;;20558925;28;20061;-42
2024/02/14 19:53:26;;;;;;;11.85;6.50;;;12.70;99.90;;;;;;20553660;28;20965;-41
2024/02/14 20:03:27;;;;;;;10.25;6.75;;;12.70;99.90;;;;;;20550246;28;20039;-41
2024/02/14 20:13:27;;;;;;;10.50;7.30;;;12.80;99.90;;;;;;20546999;28;20138;-41
2024/02/14 20:23:28;;;;;;;9.00;6.40;;;12.80;99.90;;;;;;20561388;28;20126;-41
2024/02/14 20:33:29;;;;;;;11.98;6.80;;;12.90;99.90;;;;;;20560692;28;20043;-41
2024/02/14 20:43:29;;;;;;;14.60;8.00;;;12.80;99.90;;;;;;20558337;28;20509;-41
2024/02/14 20:53:30;;;;;;;15.10;8.57;;;12.70;99.90;;;;;;20560650;28;20042;-41
2024/02/14 21:03:33;;;;;;;14.55;8.82;;;12.70;99.90;;;;;;20562929;28;20567;-41
2024/02/14 21:13:34;;;;;;;16.05;7.80;;;12.60;99.90;;;;;;20556477;28;20045;-41
2024/02/14 21:23:35;;;;;;;11.40;5.07;;;12.70;99.90;;;;;;20550627;28;20114;-41
2024/02/14 21:33:36;;;;;;;13.95;7.13;;;12.60;99.90;;;;;;20548977;28;20035;-41
2024/02/14 21:43:36;;;;;;;10.52;6.38;;;12.50;99.90;;;;;;20567175;28;20093;-41
2024/02/14 21:53:37;;;;;;;18.52;6.50;;;12.50;99.90;;;;;;20569511;28;20105;-41
2024/02/14 22:03:39;;;;;;;14.85;5.45;;;12.50;99.90;;;;;;20560643;28;20134;-41
2024/02/14 22:13:40;;;;;;;14.57;4.40;;;12.40;99.90;;;;;;20539749;28;20081;-41
2024/02/14 22:23:41;;;;;;;13.15;4.00;;;12.50;99.90;;;;;;20561641;28;20189;-41
2024/02/14 22:33:43;;;;;;;12.47;3.93;;;12.50;99.90;;;;;;20569442;28;20043;-41
2024/02/14 22:43:45;;;;;;;16.60;3.67;;;12.50;99.90;;;;;;20548631;28;20348;-41
2024/02/14 22:53:47;;;;;;;16.65;4.55;;;12.60;99.90;;;;;;20561984;28;20038;-41
2024/02/14 23:03:48;;;;;;;16.13;5.57;;;12.60;99.90;;;;;;20570669;28;20506;-41
2024/02/14 23:13:48;;;;;;;17.45;6.60;;;12.50;99.90;;;;;;20565142;28;20098;-41
2024/02/14 23:23:49;;;;;;;18.40;7.87;;;12.50;99.90;;;;;;20580280;28;20038;-41
2024/02/14 23:33:50;;;;;;;18.90;9.00;;;12.50;99.90;;;;;;20571895;28;20542;-41
2024/02/14 23:43:52;;;;;;;17.23;7.15;;;12.50;99.90;;;;;;20584473;28;20222;-41
2024/02/14 23:53:53;;;;;;;20.23;7.43;;;12.50;99.90;;;;;;20567903;28;20165;-41
